sensor_id;sensor_type;location;lat;lon;timestamp;pressure;altitude;pressure_sealevel;temperature;humidity
74975;BME280;68459;50.836;19.138;2024-03-02T00:02:00;98068.63;;;7.26;81.37
74975;BME280;68459;50.836;19.138;2024-03-02T00:05:05;98063.66;;;7.30;81.05
74975;BME280;68459;50.836;19.138;2024-03-02T00:08:09;98080.56;;;7.30;80.85
74975;BME280;68459;50.836;19.138;2024-03-02T00:11:13;98072.72;;;7.29;81.28
74975;BME280;68459;50.836;19.138;2024-03-02T00:14:18;98084.06;;;7.31;81.37
74975;BME280;68459;50.836;19.138;2024-03-02T00:17:24;98076.38;;;7.34;81.81
74975;BME280;68459;50.836;19.138;2024-03-02T00:20:29;98073.91;;;7.33;80.85
74975;BME280;68459;50.836;19.138;2024-03-02T00:23:33;98068.94;;;7.36;80.89
74975;BME280;68459;50.836;19.138;2024-03-02T00:26:37;98072.84;;;7.40;80.97
74975;BME280;68459;50.836;19.138;2024-03-02T00:29:41;98067.28;;;7.42;81.13
74975;BME280;68459;50.836;19.138;2024-03-02T00:32:47;98065.19;;;7.44;81.18
74975;BME280;68459;50.836;19.138;2024-03-02T00:35:51;98063.09;;;7.46;81.13
74975;BME280;68459;50.836;19.138;2024-03-02T00:38:56;98056.25;;;7.50;81.52
74975;BME280;68459;50.836;19.138;2024-03-02T00:41:59;98049.84;;;7.51;80.78
74975;BME280;68459;50.836;19.138;2024-03-02T00:45:07;98064.91;;;7.52;81.46
74975;BME280;68459;50.836;19.138;2024-03-02T00:48:15;98069.66;;;7.50;80.93
74975;BME280;68459;50.836;19.138;2024-03-02T00:51:19;98061.00;;;7.48;81.29
74975;BME280;68459;50.836;19.138;2024-03-02T00:54:25;98062.66;;;7.49;81.11
74975;BME280;68459;50.836;19.138;2024-03-02T00:57:34;98062.66;;;7.49;81.35
74975;BME280;68459;50.836;19.138;2024-03-02T01:00:37;98066.38;;;7.48;80.86
74975;BME280;68459;50.836;19.138;2024-03-02T01:03:43;98066.00;;;7.44;81.20
74975;BME280;68459;50.836;19.138;2024-03-02T01:06:46;98060.25;;;7.41;80.82
74975;BME280;68459;50.836;19.138;2024-03-02T01:09:51;98061.50;;;7.38;81.12
74975;BME280;68459;50.836;19.138;2024-03-02T01:12:54;98064.19;;;7.38;81.22
74975;BME280;68459;50.836;19.138;2024-03-02T01:15:59;98058.22;;;7.36;80.74
74975;BME280;68459;50.836;19.138;2024-03-02T01:19:04;98053.28;;;7.33;81.14
74975;BME280;68459;50.836;19.138;2024-03-02T01:22:08;98043.00;;;7.30;81.34
74975;BME280;68459;50.836;19.138;2024-03-02T01:25:12;98037.47;;;7.25;81.12
74975;BME280;68459;50.836;19.138;2024-03-02T01:28:16;98041.41;;;7.23;81.33
74975;BME280;68459;50.836;19.138;2024-03-02T01:31:20;98047.78;;;7.22;81.40
74975;BME280;68459;50.836;19.138;2024-03-02T01:34:25;98048.84;;;7.21;81.13
74975;BME280;68459;50.836;19.138;2024-03-02T01:37:29;98047.19;;;7.20;81.79
74975;BME280;68459;50.836;19.138;2024-03-02T01:40:34;98040.34;;;7.24;81.43
74975;BME280;68459;50.836;19.138;2024-03-02T01:43:38;98042.63;;;7.27;81.46
74975;BME280;68459;50.836;19.138;2024-03-02T01:46:43;98037.25;;;7.27;81.26
74975;BME280;68459;50.836;19.138;2024-03-02T01:49:48;98030.63;;;7.29;81.46
74975;BME280;68459;50.836;19.138;2024-03-02T01:52:53;98021.75;;;7.29;81.05
74975;BME280;68459;50.836;19.138;2024-03-02T01:55:57;98020.72;;;7.30;81.31
74975;BME280;68459;50.836;19.138;2024-03-02T01:59:01;98029.00;;;7.28;81.68
74975;BME280;68459;50.836;19.138;2024-03-02T02:02:05;98023.84;;;7.27;80.86
74975;BME280;68459;50.836;19.138;2024-03-02T02:05:11;98018.28;;;7.22;81.45
74975;BME280;68459;50.836;19.138;2024-03-02T02:08:15;98009.28;;;7.16;80.90
74975;BME280;68459;50.836;19.138;2024-03-02T02:11:20;98016.75;;;7.07;81.44
74975;BME280;68459;50.836;19.138;2024-03-02T02:14:23;98018.88;;;6.99;80.94
74975;BME280;68459;50.836;19.138;2024-03-02T02:17:28;98009.06;;;6.86;81.12
74975;BME280;68459;50.836;19.138;2024-03-02T02:20:33;98008.94;;;6.74;81.46
74975;BME280;68459;50.836;19.138;2024-03-02T02:23:38;98012.25;;;6.70;81.26
74975;BME280;68459;50.836;19.138;2024-03-02T02:26:42;98010.88;;;6.61;81.27
74975;BME280;68459;50.836;19.138;2024-03-02T02:29:46;98008.59;;;6.58;81.46
74975;BME280;68459;50.836;19.138;2024-03-02T02:32:49;98003.06;;;6.53;81.56
74975;BME280;68459;50.836;19.138;2024-03-02T02:35:53;98002.69;;;6.49;81.21
74975;BME280;68459;50.836;19.138;2024-03-02T02:39:00;97995.88;;;6.47;81.49
74975;BME280;68459;50.836;19.138;2024-03-02T02:42:06;97999.00;;;6.43;81.51
74975;BME280;68459;50.836;19.138;2024-03-02T02:45:10;97994.03;;;6.40;81.88
74975;BME280;68459;50.836;19.138;2024-03-02T02:48:16;97991.38;;;6.40;81.81
74975;BME280;68459;50.836;19.138;2024-03-02T02:51:20;97983.34;;;6.40;81.87
74975;BME280;68459;50.836;19.138;2024-03-02T02:54:25;97986.63;;;6.42;82.49
74975;BME280;68459;50.836;19.138;2024-03-02T02:57:29;97995.28;;;6.44;82.40
74975;BME280;68459;50.836;19.138;2024-03-02T03:00:37;97987.03;;;6.46;82.27
74975;BME280;68459;50.836;19.138;2024-03-02T03:03:41;97999.19;;;6.49;81.90
74975;BME280;68459;50.836;19.138;2024-03-02T03:06:45;97995.69;;;6.48;81.60
74975;BME280;68459;50.836;19.138;2024-03-02T03:09:50;97988.69;;;6.47;81.83
74975;BME280;68459;50.836;19.138;2024-03-02T03:12:54;97992.38;;;6.46;81.72
74975;BME280;68459;50.836;19.138;2024-03-02T03:15:59;97991.97;;;6.42;81.48
74975;BME280;68459;50.836;19.138;2024-03-02T03:19:03;97992.84;;;6.36;81.64
74975;BME280;68459;50.836;19.138;2024-03-02T03:22:06;97992.66;;;6.31;82.01
74975;BME280;68459;50.836;19.138;2024-03-02T03:25:12;97995.13;;;6.26;81.74
74975;BME280;68459;50.836;19.138;2024-03-02T03:28:16;97992.91;;;6.23;82.04
74975;BME280;68459;50.836;19.138;2024-03-02T03:31:19;97990.66;;;6.20;81.70
74975;BME280;68459;50.836;19.138;2024-03-02T03:34:23;97993.53;;;6.19;82.65
74975;BME280;68459;50.836;19.138;2024-03-02T03:37:27;97997.25;;;6.18;81.87
74975;BME280;68459;50.836;19.138;2024-03-02T03:40:37;97990.03;;;6.18;81.97
74975;BME280;68459;50.836;19.138;2024-03-02T03:43:41;97986.31;;;6.19;82.18
74975;BME280;68459;50.836;19.138;2024-03-02T03:46:45;97987.56;;;6.23;81.91
74975;BME280;68459;50.836;19.138;2024-03-02T03:49:49;97994.09;;;6.27;82.76
74975;BME280;68459;50.836;19.138;2024-03-02T03:52:53;97992.44;;;6.33;82.63
74975;BME280;68459;50.836;19.138;2024-03-02T03:55:58;97990.78;;;6.38;82.65
74975;BME280;68459;50.836;19.138;2024-03-02T03:59:02;97987.44;;;6.43;81.87
74975;BME280;68459;50.836;19.138;2024-03-02T04:02:06;97986.59;;;6.49;82.10
74975;BME280;68459;50.836;19.138;2024-03-02T04:05:11;97988.63;;;6.54;82.54
74975;BME280;68459;50.836;19.138;2024-03-02T04:08:15;97989.84;;;6.58;82.75
74975;BME280;68459;50.836;19.138;2024-03-02T04:11:20;97990.47;;;6.60;82.14
74975;BME280;68459;50.836;19.138;2024-03-02T04:14:24;97993.13;;;6.60;82.03
74975;BME280;68459;50.836;19.138;2024-03-02T04:17:27;97994.78;;;6.61;81.97
74975;BME280;68459;50.836;19.138;2024-03-02T04:20:31;97993.53;;;6.63;81.96
74975;BME280;68459;50.836;19.138;2024-03-02T04:23:35;97996.00;;;6.65;82.25
74975;BME280;68459;50.836;19.138;2024-03-02T04:26:40;97983.44;;;6.65;82.70
74975;BME280;68459;50.836;19.138;2024-03-02T04:29:44;97988.34;;;6.68;82.48
74975;BME280;68459;50.836;19.138;2024-03-02T04:32:48;97989.56;;;6.72;82.61
74975;BME280;68459;50.836;19.138;2024-03-02T04:35:52;97983.56;;;6.77;82.58
74975;BME280;68459;50.836;19.138;2024-03-02T04:38:55;97975.69;;;6.82;82.02
74975;BME280;68459;50.836;19.138;2024-03-02T04:42:00;97985.97;;;6.85;82.14
74975;BME280;68459;50.836;19.138;2024-03-02T04:45:05;97984.94;;;6.86;82.17
74975;BME280;68459;50.836;19.138;2024-03-02T04:48:10;97988.88;;;6.84;82.18
74975;BME280;68459;50.836;19.138;2024-03-02T04:51:13;97993.00;;;6.79;82.13
74975;BME280;68459;50.836;19.138;2024-03-02T04:54:17;98000.06;;;6.74;82.22
74975;BME280;68459;50.836;19.138;2024-03-02T04:57:22;97997.38;;;6.74;81.93
74975;BME280;68459;50.836;19.138;2024-03-02T05:00:26;97996.78;;;6.72;81.78
74975;BME280;68459;50.836;19.138;2024-03-02T05:03:30;97991.41;;;6.72;81.65
74975;BME280;68459;50.836;19.138;2024-03-02T05:06:36;97999.03;;;6.75;82.61
74975;BME280;68459;50.836;19.138;2024-03-02T05:09:39;98000.06;;;6.74;82.19
74975;BME280;68459;50.836;19.138;2024-03-02T05:12:46;97999.03;;;6.75;82.39
74975;BME280;68459;50.836;19.138;2024-03-02T05:16:03;98006.25;;;6.74;81.92
74975;BME280;68459;50.836;19.138;2024-03-02T05:19:07;98004.59;;;6.73;82.12
74975;BME280;68459;50.836;19.138;2024-03-02T05:22:11;97999.66;;;6.70;81.85
74975;BME280;68459;50.836;19.138;2024-03-02T05:25:15;97992.88;;;6.68;82.20
74975;BME280;68459;50.836;19.138;2024-03-02T05:28:20;97995.19;;;6.64;82.59
74975;BME280;68459;50.836;19.138;2024-03-02T05:31:24;97995.00;;;6.59;81.92
74975;BME280;68459;50.836;19.138;2024-03-02T05:34:27;97995.63;;;6.55;82.64
74975;BME280;68459;50.836;19.138;2024-03-02T05:37:31;98001.03;;;6.48;82.67
74975;BME280;68459;50.836;19.138;2024-03-02T05:40:35;98003.53;;;6.43;82.64
74975;BME280;68459;50.836;19.138;2024-03-02T05:43:41;98017.56;;;6.38;82.20
74975;BME280;68459;50.836;19.138;2024-03-02T05:46:44;98020.66;;;6.35;82.74
74975;BME280;68459;50.836;19.138;2024-03-02T05:49:48;98021.69;;;6.34;82.38
74975;BME280;68459;50.836;19.138;2024-03-02T05:52:52;98021.09;;;6.32;83.14
74975;BME280;68459;50.836;19.138;2024-03-02T05:55:56;98026.03;;;6.35;82.39
74975;BME280;68459;50.836;19.138;2024-03-02T05:59:03;98027.63;;;6.43;82.39
74975;BME280;68459;50.836;19.138;2024-03-02T06:02:15;98031.94;;;6.51;82.94
74975;BME280;68459;50.836;19.138;2024-03-02T06:05:18;98041.78;;;6.57;82.33
74975;BME280;68459;50.836;19.138;2024-03-02T06:08:22;98043.84;;;6.61;83.08
74975;BME280;68459;50.836;19.138;2024-03-02T06:11:25;98046.69;;;6.66;82.79
74975;BME280;68459;50.836;19.138;2024-03-02T06:14:31;98051.19;;;6.72;82.81
74975;BME280;68459;50.836;19.138;2024-03-02T06:17:35;98055.31;;;6.75;82.53
74975;BME280;68459;50.836;19.138;2024-03-02T06:20:39;98056.34;;;6.74;82.61
74975;BME280;68459;50.836;19.138;2024-03-02T06:23:42;98053.03;;;6.78;82.63
74975;BME280;68459;50.836;19.138;2024-03-02T06:26:46;98044.13;;;6.85;82.50
74975;BME280;68459;50.836;19.138;2024-03-02T06:29:52;98051.09;;;6.92;82.83
74975;BME280;68459;50.836;19.138;2024-03-02T06:32:56;98044.03;;;6.98;82.20
74975;BME280;68459;50.836;19.138;2024-03-02T06:36:00;98054.94;;;7.03;82.68
74975;BME280;68459;50.836;19.138;2024-03-02T06:39:04;98047.66;;;7.10;82.38
74975;BME280;68459;50.836;19.138;2024-03-02T06:42:08;98054.41;;;7.19;82.37
74975;BME280;68459;50.836;19.138;2024-03-02T06:45:14;98062.22;;;7.27;81.91
74975;BME280;68459;50.836;19.138;2024-03-02T06:48:18;98053.88;;;7.35;81.98
74975;BME280;68459;50.836;19.138;2024-03-02T06:51:22;98049.09;;;7.44;81.82
74975;BME280;68459;50.836;19.138;2024-03-02T06:54:26;98046.94;;;7.53;82.25
74975;BME280;68459;50.836;19.138;2024-03-02T06:57:30;98053.91;;;7.60;81.91
74975;BME280;68459;50.836;19.138;2024-03-02T07:00:35;98048.28;;;7.68;81.81
74975;BME280;68459;50.836;19.138;2024-03-02T07:03:38;98047.59;;;7.73;81.60
74975;BME280;68459;50.836;19.138;2024-03-02T07:06:43;98055.78;;;7.84;81.79
74975;BME280;68459;50.836;19.138;2024-03-02T07:09:47;98056.69;;;7.97;81.64
74975;BME280;68459;50.836;19.138;2024-03-02T07:12:50;98055.72;;;8.09;81.48
74975;BME280;68459;50.836;19.138;2024-03-02T07:15:56;98052.50;;;8.19;81.25
74975;BME280;68459;50.836;19.138;2024-03-02T07:19:17;98065.19;;;8.30;81.14
74975;BME280;68459;50.836;19.138;2024-03-02T07:22:21;98072.84;;;8.33;81.15
74975;BME280;68459;50.836;19.138;2024-03-02T07:25:25;98068.47;;;8.39;81.00
74975;BME280;68459;50.836;19.138;2024-03-02T07:28:31;98076.66;;;8.44;81.21
74975;BME280;68459;50.836;19.138;2024-03-02T07:31:37;98070.47;;;8.43;80.70
74975;BME280;68459;50.836;19.138;2024-03-02T07:34:40;98072.88;;;8.51;80.60
74975;BME280;68459;50.836;19.138;2024-03-02T07:37:44;98073.16;;;8.62;80.44
74975;BME280;68459;50.836;19.138;2024-03-02T07:40:48;98085.44;;;8.69;80.51
74975;BME280;68459;50.836;19.138;2024-03-02T07:43:52;98082.81;;;8.81;80.46
74975;BME280;68459;50.836;19.138;2024-03-02T07:46:58;98084.16;;;8.90;79.81
74975;BME280;68459;50.836;19.138;2024-03-02T07:50:02;98086.53;;;8.98;79.99
74975;BME280;68459;50.836;19.138;2024-03-02T07:53:08;98091.72;;;9.11;79.95
74975;BME280;68459;50.836;19.138;2024-03-02T07:56:12;98090.13;;;9.22;79.75
74975;BME280;68459;50.836;19.138;2024-03-02T07:59:16;98082.56;;;9.31;79.52
74975;BME280;68459;50.836;19.138;2024-03-02T08:02:21;98078.69;;;9.26;79.35
74975;BME280;68459;50.836;19.138;2024-03-02T08:05:25;98086.00;;;9.19;79.51
74975;BME280;68459;50.836;19.138;2024-03-02T08:08:29;98078.66;;;9.15;79.44
74975;BME280;68459;50.836;19.138;2024-03-02T08:11:33;98096.78;;;9.19;79.44
74975;BME280;68459;50.836;19.138;2024-03-02T08:14:37;98094.69;;;9.21;79.81
74975;BME280;68459;50.836;19.138;2024-03-02T08:17:42;98091.91;;;9.28;79.79
74975;BME280;68459;50.836;19.138;2024-03-02T08:20:50;98085.38;;;9.36;79.67
74975;BME280;68459;50.836;19.138;2024-03-02T08:23:54;98094.03;;;9.38;78.79
74975;BME280;68459;50.836;19.138;2024-03-02T08:26:58;98096.59;;;9.33;78.89
74975;BME280;68459;50.836;19.138;2024-03-02T08:30:03;98103.63;;;9.34;79.01
74975;BME280;68459;50.836;19.138;2024-03-02T08:33:10;98103.09;;;9.43;79.67
74975;BME280;68459;50.836;19.138;2024-03-02T08:36:14;98098.78;;;9.54;79.63
74975;BME280;68459;50.836;19.138;2024-03-02T08:39:18;98106.88;;;9.65;79.27
74975;BME280;68459;50.836;19.138;2024-03-02T08:42:23;98111.91;;;9.74;78.60
74975;BME280;68459;50.836;19.138;2024-03-02T08:45:26;98104.66;;;9.74;78.89
74975;BME280;68459;50.836;19.138;2024-03-02T08:48:32;98111.00;;;9.80;78.72
74975;BME280;68459;50.836;19.138;2024-03-02T08:51:35;98107.03;;;9.82;78.60
74975;BME280;68459;50.836;19.138;2024-03-02T08:54:39;98111.00;;;9.91;77.95
74975;BME280;68459;50.836;19.138;2024-03-02T08:57:43;98108.56;;;10.01;78.54
74975;BME280;68459;50.836;19.138;2024-03-02T09:00:47;98105.16;;;10.18;78.20
74975;BME280;68459;50.836;19.138;2024-03-02T09:03:52;98115.28;;;10.34;78.55
74975;BME280;68459;50.836;19.138;2024-03-02T09:06:56;98109.19;;;10.50;77.90
74975;BME280;68459;50.836;19.138;2024-03-02T09:10:01;98101.88;;;10.62;77.45
74975;BME280;68459;50.836;19.138;2024-03-02T09:13:05;98096.53;;;10.79;77.66
74975;BME280;68459;50.836;19.138;2024-03-02T09:16:09;98096.63;;;10.96;76.88
74975;BME280;68459;50.836;19.138;2024-03-02T09:19:14;98097.06;;;11.04;77.36
74975;BME280;68459;50.836;19.138;2024-03-02T09:22:19;98103.38;;;11.10;76.78
74975;BME280;68459;50.836;19.138;2024-03-02T09:25:22;98108.66;;;11.17;76.21
74975;BME280;68459;50.836;19.138;2024-03-02T09:28:27;98109.19;;;11.30;76.54
74975;BME280;68459;50.836;19.138;2024-03-02T09:31:31;98099.84;;;11.38;76.68
74975;BME280;68459;50.836;19.138;2024-03-02T09:34:36;98108.94;;;11.49;76.56
74975;BME280;68459;50.836;19.138;2024-03-02T09:37:40;98116.69;;;11.57;75.80
74975;BME280;68459;50.836;19.138;2024-03-02T09:40:44;98116.50;;;11.63;76.58
74975;BME280;68459;50.836;19.138;2024-03-02T09:43:48;98114.81;;;11.74;76.27
74975;BME280;68459;50.836;19.138;2024-03-02T09:46:52;98116.63;;;11.85;76.34
74975;BME280;68459;50.836;19.138;2024-03-02T09:49:58;98118.22;;;11.98;75.64
74975;BME280;68459;50.836;19.138;2024-03-02T09:53:01;98114.38;;;12.10;75.09
74975;BME280;68459;50.836;19.138;2024-03-02T09:56:06;98118.91;;;12.27;75.94
74975;BME280;68459;50.836;19.138;2024-03-02T09:59:09;98122.88;;;12.36;75.31
74975;BME280;68459;50.836;19.138;2024-03-02T10:02:14;98106.44;;;12.42;75.35
74975;BME280;68459;50.836;19.138;2024-03-02T10:05:26;98110.19;;;12.58;74.53
74975;BME280;68459;50.836;19.138;2024-03-02T10:08:42;98113.69;;;12.75;74.36
74975;BME280;68459;50.836;19.138;2024-03-02T10:11:47;98110.44;;;12.78;74.71
74975;BME280;68459;50.836;19.138;2024-03-02T10:15:02;98113.03;;;12.68;73.62
74975;BME280;68459;50.836;19.138;2024-03-02T10:18:10;98119.94;;;12.59;73.86
74975;BME280;68459;50.836;19.138;2024-03-02T10:21:16;98109.69;;;12.61;74.21
74975;BME280;68459;50.836;19.138;2024-03-02T10:24:21;98108.06;;;12.60;74.22
74975;BME280;68459;50.836;19.138;2024-03-02T10:27:27;98109.13;;;12.59;74.22
74975;BME280;68459;50.836;19.138;2024-03-02T10:30:32;98109.84;;;12.55;74.23
74975;BME280;68459;50.836;19.138;2024-03-02T10:33:36;98111.53;;;12.39;74.47
74975;BME280;68459;50.836;19.138;2024-03-02T10:36:42;98121.38;;;12.28;73.64
74975;BME280;68459;50.836;19.138;2024-03-02T10:39:47;98116.41;;;12.20;74.19
74975;BME280;68459;50.836;19.138;2024-03-02T10:42:51;98112.31;;;12.18;74.38
74975;BME280;68459;50.836;19.138;2024-03-02T10:45:56;98124.66;;;12.13;74.34
74975;BME280;68459;50.836;19.138;2024-03-02T10:49:01;98116.00;;;12.11;74.55
74975;BME280;68459;50.836;19.138;2024-03-02T10:52:11;98116.34;;;11.98;74.23
74975;BME280;68459;50.836;19.138;2024-03-02T10:55:15;98106.97;;;11.89;74.60
74975;BME280;68459;50.836;19.138;2024-03-02T10:58:19;98107.47;;;11.86;75.29
74975;BME280;68459;50.836;19.138;2024-03-02T11:01:24;98111.22;;;11.85;74.83
74975;BME280;68459;50.836;19.138;2024-03-02T11:04:30;98108.88;;;11.89;75.13
74975;BME280;68459;50.836;19.138;2024-03-02T11:07:37;98108.63;;;11.90;74.98
74975;BME280;68459;50.836;19.138;2024-03-02T11:10:50;98116.25;;;11.93;74.44
74975;BME280;68459;50.836;19.138;2024-03-02T11:13:56;98116.50;;;11.92;74.13
74975;BME280;68459;50.836;19.138;2024-03-02T11:17:03;98107.47;;;11.86;75.03
74975;BME280;68459;50.836;19.138;2024-03-02T11:20:08;98111.31;;;11.90;74.98
74975;BME280;68459;50.836;19.138;2024-03-02T11:23:15;98112.53;;;11.99;74.33
74975;BME280;68459;50.836;19.138;2024-03-02T11:26:19;98113.22;;;12.06;74.47
74975;BME280;68459;50.836;19.138;2024-03-02T11:29:42;98102.75;;;12.10;73.96
74975;BME280;68459;50.836;19.138;2024-03-02T11:32:55;98104.69;;;12.14;74.36
74975;BME280;68459;50.836;19.138;2024-03-02T11:36:00;98098.34;;;12.26;74.54
74975;BME280;68459;50.836;19.138;2024-03-02T11:39:05;98104.50;;;12.38;74.63
74975;BME280;68459;50.836;19.138;2024-03-02T11:42:11;98103.81;;;12.47;73.76
74975;BME280;68459;50.836;19.138;2024-03-02T11:45:16;98100.34;;;12.52;73.65
74975;BME280;68459;50.836;19.138;2024-03-02T11:48:20;98098.88;;;12.61;73.97
74975;BME280;68459;50.836;19.138;2024-03-02T11:51:24;98096.78;;;12.68;73.83
74975;BME280;68459;50.836;19.138;2024-03-02T11:54:32;98091.00;;;12.81;73.26
74975;BME280;68459;50.836;19.138;2024-03-02T11:57:36;98101.19;;;12.96;73.30
74975;BME280;68459;50.836;19.138;2024-03-02T12:00:41;98098.06;;;13.04;72.86
74975;BME280;68459;50.836;19.138;2024-03-02T12:03:45;98095.72;;;13.13;73.06
74975;BME280;68459;50.836;19.138;2024-03-02T12:06:54;98088.47;;;13.18;72.02
74975;BME280;68459;50.836;19.138;2024-03-02T12:10:03;98097.69;;;13.17;72.05
74975;BME280;68459;50.836;19.138;2024-03-02T12:13:08;98093.41;;;13.22;72.59
74975;BME280;68459;50.836;19.138;2024-03-02T12:16:23;98090.75;;;13.27;71.93
74975;BME280;68459;50.836;19.138;2024-03-02T12:19:27;98092.13;;;13.29;72.63
74975;BME280;68459;50.836;19.138;2024-03-02T12:22:32;98098.88;;;13.27;72.42
74975;BME280;68459;50.836;19.138;2024-03-02T12:25:37;98078.59;;;13.29;72.19
74975;BME280;68459;50.836;19.138;2024-03-02T12:28:41;98078.63;;;13.34;72.05
74975;BME280;68459;50.836;19.138;2024-03-02T12:31:44;98080.91;;;13.42;72.42
74975;BME280;68459;50.836;19.138;2024-03-02T12:34:50;98085.44;;;13.64;71.77
74975;BME280;68459;50.836;19.138;2024-03-02T12:37:55;98084.50;;;13.80;71.55
74975;BME280;68459;50.836;19.138;2024-03-02T12:41:00;98088.91;;;13.91;71.53
74975;BME280;68459;50.836;19.138;2024-03-02T12:44:05;98081.66;;;14.02;71.04
74975;BME280;68459;50.836;19.138;2024-03-02T12:47:08;98092.56;;;14.07;71.04
74975;BME280;68459;50.836;19.138;2024-03-02T12:50:14;98079.38;;;14.25;70.58
74975;BME280;68459;50.836;19.138;2024-03-02T12:53:19;98080.50;;;14.30;70.70
74975;BME280;68459;50.836;19.138;2024-03-02T12:56:24;98075.34;;;14.28;70.03
74975;BME280;68459;50.836;19.138;2024-03-02T12:59:28;98075.53;;;14.11;70.29
74975;BME280;68459;50.836;19.138;2024-03-02T13:02:32;98076.59;;;14.10;70.29
74975;BME280;68459;50.836;19.138;2024-03-02T13:05:35;98083.91;;;14.10;70.22
74975;BME280;68459;50.836;19.138;2024-03-02T13:08:39;98084.44;;;14.07;70.40
74975;BME280;68459;50.836;19.138;2024-03-02T13:11:45;98074.16;;;14.09;70.22
74975;BME280;68459;50.836;19.138;2024-03-02T13:14:49;98069.34;;;14.26;70.34
74975;BME280;68459;50.836;19.138;2024-03-02T13:17:53;98067.75;;;14.30;70.03
74975;BME280;68459;50.836;19.138;2024-03-02T13:20:57;98068.00;;;14.23;69.90
74975;BME280;68459;50.836;19.138;2024-03-02T13:24:01;98054.91;;;14.10;70.05
74975;BME280;68459;50.836;19.138;2024-03-02T13:27:07;98060.78;;;13.97;69.99
74975;BME280;68459;50.836;19.138;2024-03-02T13:30:11;98068.25;;;13.85;70.18
74975;BME280;68459;50.836;19.138;2024-03-02T13:33:15;98063.94;;;13.84;70.42
74975;BME280;68459;50.836;19.138;2024-03-02T13:36:24;98061.75;;;13.86;70.15
74975;BME280;68459;50.836;19.138;2024-03-02T13:39:27;98059.84;;;13.86;70.24
74975;BME280;68459;50.836;19.138;2024-03-02T13:42:34;98059.09;;;13.91;70.16
74975;BME280;68459;50.836;19.138;2024-03-02T13:45:38;98058.88;;;13.98;70.48
74975;BME280;68459;50.836;19.138;2024-03-02T13:48:42;98071.63;;;14.02;70.12
74975;BME280;68459;50.836;19.138;2024-03-02T13:51:46;98072.47;;;14.03;70.16
74975;BME280;68459;50.836;19.138;2024-03-02T13:54:50;98067.34;;;14.06;70.42
74975;BME280;68459;50.836;19.138;2024-03-02T13:57:56;98070.81;;;14.02;70.04
74975;BME280;68459;50.836;19.138;2024-03-02T14:01:00;98076.13;;;13.86;69.55
74975;BME280;68459;50.836;19.138;2024-03-02T14:04:07;98075.72;;;13.68;70.02
74975;BME280;68459;50.836;19.138;2024-03-02T14:07:11;98070.63;;;13.44;70.23
74975;BME280;68459;50.836;19.138;2024-03-02T14:10:15;98073.47;;;13.33;70.50
74975;BME280;68459;50.836;19.138;2024-03-02T14:13:21;98073.19;;;13.29;70.36
74975;BME280;68459;50.836;19.138;2024-03-02T14:16:25;98077.72;;;13.24;70.53
74975;BME280;68459;50.836;19.138;2024-03-02T14:19:29;98072.50;;;13.17;70.83
74975;BME280;68459;50.836;19.138;2024-03-02T14:22:33;98069.13;;;13.10;71.05
74975;BME280;68459;50.836;19.138;2024-03-02T14:25:38;98069.63;;;13.07;70.93
74975;BME280;68459;50.836;19.138;2024-03-02T14:28:44;98071.28;;;13.08;71.10
74975;BME280;68459;50.836;19.138;2024-03-02T14:31:52;98071.34;;;13.13;71.00
74975;BME280;68459;50.836;19.138;2024-03-02T14:34:56;98074.94;;;13.18;70.73
74975;BME280;68459;50.836;19.138;2024-03-02T14:38:00;98073.25;;;13.12;71.00
74975;BME280;68459;50.836;19.138;2024-03-02T14:41:04;98073.38;;;13.01;70.99
74975;BME280;68459;50.836;19.138;2024-03-02T14:44:09;98077.91;;;12.95;70.91
74975;BME280;68459;50.836;19.138;2024-03-02T14:47:13;98073.81;;;12.93;70.98
74975;BME280;68459;50.836;19.138;2024-03-02T14:50:16;98061.88;;;12.89;71.01
74975;BME280;68459;50.836;19.138;2024-03-02T14:53:20;98059.09;;;12.83;71.06
74975;BME280;68459;50.836;19.138;2024-03-02T14:56:24;98054.13;;;12.75;71.45
74975;BME280;68459;50.836;19.138;2024-03-02T14:59:29;98066.53;;;12.71;71.13
74975;BME280;68459;50.836;19.138;2024-03-02T15:02:33;98054.53;;;12.62;71.25
74975;BME280;68459;50.836;19.138;2024-03-02T15:05:37;98057.34;;;12.51;71.94
74975;BME280;68459;50.836;19.138;2024-03-02T15:08:42;98058.00;;;12.41;71.77
74975;BME280;68459;50.836;19.138;2024-03-02T15:11:46;98064.94;;;12.32;71.62
74975;BME280;68459;50.836;19.138;2024-03-02T15:14:51;98058.31;;;12.23;71.62
74975;BME280;68459;50.836;19.138;2024-03-02T15:17:55;98053.56;;;12.13;72.21
74975;BME280;68459;50.836;19.138;2024-03-02T15:20:58;98059.72;;;12.08;71.90
74975;BME280;68459;50.836;19.138;2024-03-02T15:24:03;98059.47;;;12.10;72.59
74975;BME280;68459;50.836;19.138;2024-03-02T15:27:07;98053.84;;;12.11;72.20
74975;BME280;68459;50.836;19.138;2024-03-02T15:30:13;98059.72;;;12.08;72.35
74975;BME280;68459;50.836;19.138;2024-03-02T15:33:17;98048.81;;;12.03;72.83
74975;BME280;68459;50.836;19.138;2024-03-02T15:36:21;98054.09;;;11.93;72.43
74975;BME280;68459;50.836;19.138;2024-03-02T15:39:25;98054.25;;;11.87;73.01
74975;BME280;68459;50.836;19.138;2024-03-02T15:42:29;98045.84;;;11.83;72.28
74975;BME280;68459;50.836;19.138;2024-03-02T15:45:34;98065.72;;;11.77;72.44
74975;BME280;68459;50.836;19.138;2024-03-02T15:48:38;98068.81;;;11.69;72.58
74975;BME280;68459;50.836;19.138;2024-03-02T15:51:41;98060.25;;;11.60;72.74
74975;BME280;68459;50.836;19.138;2024-03-02T15:54:46;98060.34;;;11.49;72.82
74975;BME280;68459;50.836;19.138;2024-03-02T15:57:50;98064.84;;;11.43;72.65
74975;BME280;68459;50.836;19.138;2024-03-02T16:00:55;98062.63;;;11.40;72.76
74975;BME280;68459;50.836;19.138;2024-03-02T16:04:00;98065.22;;;11.35;73.89
74975;BME280;68459;50.836;19.138;2024-03-02T16:07:03;98059.19;;;11.28;73.87
74975;BME280;68459;50.836;19.138;2024-03-02T16:10:08;98061.78;;;11.23;73.91
74975;BME280;68459;50.836;19.138;2024-03-02T16:13:12;98064.63;;;11.16;73.24